createdAt,value
2018-09-19T00:07:57.541Z,66
2018-09-19T00:17:57.768Z,66.7
2018-09-19T00:27:58.028Z,67.3
2018-09-19T00:37:58.610Z,68.1
2018-09-19T00:47:59.031Z,68.5
2018-09-19T01:08:02.357Z,69.6
2018-09-19T01:18:02.770Z,69.7
2018-09-19T01:28:02.691Z,70
2018-09-19T01:38:02.816Z,70.3
2018-09-19T01:48:03.134Z,70.6
2018-09-19T01:58:03.584Z,70.9
2018-09-19T02:08:04.134Z,71.2
2018-09-19T02:18:04.400Z,71.4
2018-09-19T02:28:05.291Z,71.5
2018-09-19T02:38:05.910Z,71.4
2018-09-19T02:48:06.413Z,71.1
2018-09-19T02:58:08.159Z,71
2018-09-19T03:08:08.627Z,70.9
2018-09-19T03:18:08.906Z,71
2018-09-19T03:28:09.363Z,71.3
2018-09-19T03:38:09.668Z,71.5
2018-09-19T03:58:12.951Z,72.2
2018-09-19T04:08:13.081Z,72.5
2018-09-19T04:18:13.331Z,72.6
2018-09-19T04:28:13.750Z,72.9
2018-09-19T04:48:17.114Z,73.4
2018-09-19T04:58:17.953Z,73.8
2018-09-19T05:28:24.082Z,74.4
2018-09-19T05:48:26.964Z,73.2
2018-09-19T06:18:34.594Z,70.9
2018-09-19T06:28:34.824Z,70.5
2018-09-19T06:38:35.305Z,68.8
2018-09-19T06:48:35.971Z,65.8
2018-09-19T06:58:36.624Z,63.1
2018-09-19T07:08:37.446Z,61.1
2018-09-19T07:18:38.091Z,59.4
2018-09-19T07:28:38.499Z,57.9
2018-09-19T07:38:38.970Z,57
2018-09-19T07:48:39.205Z,56.5
2018-09-19T07:58:39.703Z,55.7
2018-09-19T08:08:40.180Z,55.5
2018-09-19T08:18:42.202Z,55.6
2018-09-19T08:28:44.061Z,55.9
2018-09-19T08:38:46.767Z,55.1
2018-09-19T08:48:46.954Z,55.2
2018-09-19T08:58:47.307Z,55.3
2018-09-19T09:08:47.749Z,55.6
2018-09-19T09:18:48.230Z,55
2018-09-19T09:38:51.922Z,54.2
2018-09-19T09:48:52.172Z,54.6
2018-09-19T09:58:52.687Z,55.3
2018-09-19T10:08:53.154Z,55.6
2018-09-19T10:18:53.369Z,55
2018-09-19T10:28:54.123Z,54.8
2018-09-19T10:38:54.478Z,54.3
2018-09-19T10:48:55.051Z,53.7
2018-09-19T10:58:55.630Z,52.9
2018-09-19T11:08:58.626Z,52.5
2018-09-19T11:18:59.207Z,51.4
2018-09-19T11:28:59.732Z,51.5
2018-09-19T11:39:00.280Z,51.5
2018-09-19T11:49:00.651Z,49.6
2018-09-19T11:59:03.633Z,49.1
2018-09-19T12:09:04.044Z,49.2
2018-09-19T12:19:04.750Z,49
2018-09-19T12:29:05.614Z,49
2018-09-19T12:39:05.926Z,49.4
2018-09-19T12:49:06.247Z,49.3
2018-09-19T12:59:06.701Z,48.6
2018-09-19T13:09:07.078Z,48.4
2018-09-19T13:19:07.370Z,48.9
2018-09-19T13:39:10.901Z,49
2018-09-19T13:49:11.180Z,48.6
2018-09-19T14:09:14.035Z,48.2
2018-09-19T14:19:14.173Z,48.5
2018-09-19T14:29:14.786Z,48.7
2018-09-19T14:39:15.131Z,48.9
2018-09-19T14:49:16.563Z,49.1
2018-09-19T14:59:16.886Z,49.1
2018-09-19T15:09:17.030Z,48.7
2018-09-19T15:19:17.443Z,48
2018-09-19T15:29:17.765Z,47.8
2018-09-19T15:39:18.270Z,47.8
2018-09-19T15:49:21.274Z,48.1
2018-09-19T15:59:21.665Z,48.2
2018-09-19T16:09:21.839Z,48.5
2018-09-19T16:19:21.865Z,48.9
2018-09-19T16:29:22.052Z,48.7
2018-09-19T16:39:22.269Z,48.8
2018-09-19T16:49:22.641Z,49.1
2018-09-19T16:59:24.661Z,49.7
2018-09-19T17:09:25.047Z,50.6
2018-09-19T17:19:25.698Z,51.4
2018-09-19T17:29:25.921Z,52.2
2018-09-19T17:39:26.847Z,53
2018-09-19T17:49:27.043Z,53.4
2018-09-19T17:59:27.350Z,53.8
2018-09-19T18:09:27.757Z,54.3
2018-09-19T18:19:28.088Z,54.7
2018-09-19T18:29:28.312Z,55
2018-09-19T18:39:28.673Z,55.2
2018-09-19T18:49:28.944Z,55.3
2018-09-19T18:59:30.019Z,55.3
2018-09-19T19:09:30.321Z,55.1
2018-09-19T19:19:30.457Z,55.4
2018-09-19T19:29:30.703Z,55.7
2018-09-19T19:39:31.316Z,55.6
2018-09-19T19:59:34.229Z,54.5
2018-09-19T20:19:40.374Z,54.2
2018-09-19T20:29:40.231Z,54.7
2018-09-19T20:39:40.432Z,55.7
2018-09-19T20:49:40.583Z,56.4
2018-09-19T20:59:40.684Z,57
2018-09-19T21:09:40.994Z,57.6
2018-09-19T21:19:43.864Z,58.1
2018-09-19T21:29:44.215Z,58.7
2018-09-19T21:39:44.530Z,59.2
2018-09-19T21:49:44.665Z,59.6
2018-09-19T21:59:44.945Z,60.2
2018-09-19T22:09:45.465Z,60.9
2018-09-19T22:29:48.613Z,62.1
2018-09-19T22:49:51.479Z,62.6
2018-09-19T22:59:51.901Z,63.1
2018-09-19T23:09:52.292Z,63
2018-09-19T23:19:53.658Z,63
2018-09-19T23:29:54.154Z,63.3
2018-09-19T23:39:54.498Z,63.6
2018-09-19T23:49:54.749Z,64.1
2018-09-19T23:59:54.920Z,64.2
